Time;durP1;ratioP1;P1;durP2;ratioP2;P2;SDS_P1;SDS_P2;PMS_P1;PMS_P2;Temp;Humidity;BMP_temperature;BMP_pressure;BME280_temperature;BME280_humidity;BME280_pressure;Samples;Min_cycle;Max_cycle;Signal;HPM_P1;HPM_P2
2021/01/07 00:02:27;;;;;;;45.60;24.20;;;;;;;2.36;77.05;99677.80;2090756;82;31660;-72
2021/01/07 00:05:29;;;;;;;41.92;22.73;;;;;;;2.37;76.96;99675.56;2061882;82;33135;-73
2021/01/07 00:11:51;;;;;;;44.00;22.50;;;;;;;2.34;76.96;99676.52;2230012;77;27534;-71
2021/01/07 00:14:50;;;;;;;38.30;20.45;;;;;;;2.27;76.96;99678.46;2162149;80;27547;-69
2021/01/07 00:17:52;;;;;;;35.33;19.92;;;;;;;2.24;77.01;99669.28;2215256;80;29865;-70
2021/01/07 00:20:54;;;;;;;37.53;19.60;;;;;;;2.20;76.92;99679.52;2100133;80;32175;-72
2021/01/07 00:23:57;;;;;;;38.28;20.45;;;;;;;2.20;76.96;99679.52;2179569;80;34385;-72
2021/01/07 00:26:59;;;;;;;40.60;20.80;;;;;;;2.20;77.03;99679.52;2163197;81;28616;-70
2021/01/07 00:30:05;;;;;;;32.40;19.80;;;;;;;2.22;77.01;99682.13;2168600;81;27632;-70
2021/01/07 00:33:08;;;;;;;36.93;19.02;;;;;;;2.22;77.09;99676.84;2170425;80;28827;-71
2021/01/07 00:36:10;;;;;;;36.40;20.52;;;;;;;2.23;77.13;99672.83;2159576;80;32188;-72
2021/01/07 00:39:13;;;;;;;35.23;20.43;;;;;;;2.27;77.20;99669.21;2132194;81;33504;-71
2021/01/07 00:45:32;;;;;;;35.63;20.90;;;;;;;2.32;77.21;99669.55;2247409;78;27777;-71
2021/01/07 00:48:34;;;;;;;36.77;20.97;;;;;;;2.24;77.13;99662.67;2195103;79;27704;-72
2021/01/07 00:51:36;;;;;;;35.70;20.48;;;;;;;2.26;77.12;99678.48;2220424;79;28638;-71
2021/01/07 00:54:39;;;;;;;35.63;19.87;;;;;;;2.22;77.06;99675.53;2183408;79;30353;-72
2021/01/07 00:57:41;;;;;;;32.25;19.32;;;;;;;2.19;77.12;99683.06;2159662;81;34084;-72
2021/01/07 01:00:44;;;;;;;33.35;19.70;;;;;;;2.18;77.04;99682.64;2142102;79;28560;-72
2021/01/07 01:03:46;;;;;;;33.38;19.37;;;;;;;2.18;77.16;99675.18;2165164;79;27722;-71
2021/01/07 01:06:48;;;;;;;31.02;20.17;;;;;;;2.20;77.20;99680.83;2178203;79;28820;-72
2021/01/07 01:09:50;;;;;;;35.75;20.82;;;;;;;2.21;77.27;99683.89;2119452;79;31725;-72
2021/01/07 01:12:53;;;;;;;38.13;20.30;;;;;;;2.24;77.27;99685.58;2162091;80;32689;-72
2021/01/07 01:15:59;;;;;;;35.03;20.35;;;;;;;2.24;77.21;99686.46;2187531;80;29784;-72
2021/01/07 01:19:00;;;;;;;35.90;19.73;;;;;;;2.22;77.23;99686.09;2147941;80;27671;-70
2021/01/07 01:22:03;;;;;;;31.82;20.45;;;;;;;2.18;77.12;99688.39;2147334;80;28856;-72
2021/01/07 01:25:09;;;;;;;34.20;19.60;;;;;;;2.17;77.22;99687.98;2172601;81;31219;-72
2021/01/07 01:28:11;;;;;;;34.73;18.42;;;;;;;2.14;77.25;99686.30;2115787;82;32950;-70
2021/01/07 01:31:13;;;;;;;35.05;18.98;;;;;;;2.13;77.18;99693.80;2184230;80;29864;-70
2021/01/07 01:34:23;;;;;;;38.00;20.85;;;;;;;2.13;77.20;99690.69;2187304;80;27639;-71
2021/01/07 01:37:25;;;;;;;32.83;19.37;;;;;;;2.13;77.22;99693.80;2145342;81;29628;-71
2021/01/07 01:40:27;;;;;;;34.85;17.95;;;;;;;2.13;77.34;99694.66;2150958;80;31256;-71
2021/01/07 01:43:30;;;;;;;31.57;18.52;;;;;;;2.13;77.30;99694.66;2163560;80;33136;-71
2021/01/07 01:46:33;;;;;;;32.85;19.35;;;;;;;2.13;77.34;99692.02;2161088;80;28664;-72
2021/01/07 01:49:35;;;;;;;31.80;18.92;;;;;;;2.13;77.41;99697.30;2111694;82;27717;-71
2021/01/07 01:52:38;;;;;;;29.48;17.45;;;;;;;2.12;77.37;99694.70;2164046;79;29315;-71
2021/01/07 01:55:43;;;;;;;24.75;16.20;;;;;;;2.13;77.47;99697.77;2186199;80;31156;-71
2021/01/07 01:58:45;;;;;;;25.12;14.85;;;;;;;2.15;77.45;99691.99;2162174;79;33136;-71
2021/01/07 02:01:47;;;;;;;22.50;13.85;;;;;;;2.17;77.43;99694.59;2157066;80;28051;-71
2021/01/07 02:04:50;;;;;;;23.20;13.28;;;;;;;2.15;77.20;99693.31;2175923;80;28267;-72
2021/01/07 02:08:17;;;;;;;20.75;12.93;;;;;;;2.15;77.38;99691.99;2129837;80;29800;-71
2021/01/07 02:11:19;;;;;;;21.30;13.83;;;;;;;2.17;77.38;99699.40;1991649;87;32129;-71
2021/01/07 02:14:22;;;;;;;26.93;15.38;;;;;;;2.16;77.26;99686.23;1949814;89;33829;-72
2021/01/07 02:17:35;;;;;;;24.27;14.53;;;;;;;2.16;77.31;99683.59;2244382;77;27783;-71
2021/01/07 02:20:38;;;;;;;24.02;14.60;;;;;;;2.10;77.41;99689.44;2131898;80;27629;-71
2021/01/07 02:23:54;;;;;;;24.40;14.00;;;;;;;2.10;77.48;99683.30;2159989;80;29801;-70
2021/01/07 02:27:00;;;;;;;28.17;13.80;;;;;;;2.11;77.46;99683.72;2202885;80;31185;-70
2021/01/07 02:30:03;;;;;;;21.87;13.40;;;;;;;2.11;77.54;99674.00;2176984;80;33124;-70
2021/01/07 02:33:05;;;;;;;26.10;14.73;;;;;;;2.12;77.43;99673.56;2142251;81;29285;-71
2021/01/07 02:36:09;;;;;;;24.47;14.23;;;;;;;2.13;77.45;99679.27;2146841;80;27693;-70
2021/01/07 02:39:11;;;;;;;25.12;13.00;;;;;;;2.12;77.33;99679.70;2186923;80;28815;-69
2021/01/07 02:42:14;;;;;;;24.63;14.53;;;;;;;2.13;77.43;99674.84;2183986;80;31140;-70
2021/01/07 02:45:16;;;;;;;23.25;13.83;;;;;;;2.16;77.46;99678.31;2118775;81;33132;-71
2021/01/07 02:48:20;;;;;;;24.23;13.35;;;;;;;2.17;77.39;99680.05;2168303;81;28859;-71
2021/01/07 02:51:22;;;;;;;20.88;12.55;;;;;;;2.15;77.28;99679.22;2169059;80;27646;-70
2021/01/07 02:54:25;;;;;;;23.38;12.65;;;;;;;2.12;77.38;99676.20;2180559;80;29877;-71
2021/01/07 02:57:28;;;;;;;22.77;13.25;;;;;;;2.11;77.28;99677.11;2120065;81;31227;-70
2021/01/07 03:00:30;;;;;;;23.18;12.30;;;;;;;2.10;77.43;99680.66;2144781;81;33316;-71
2021/01/07 03:03:33;;;;;;;26.23;11.70;;;;;;;2.07;77.36;99676.77;2047406;84;30097;-70
2021/01/07 03:06:36;;;;;;;21.12;12.18;;;;;;;2.07;77.45;99678.94;2082073;83;27714;-71
2021/01/07 03:09:39;;;;;;;23.55;12.95;;;;;;;2.09;77.39;99677.59;2085570;84;28817;-71
2021/01/07 03:12:41;;;;;;;20.88;11.93;;;;;;;2.10;77.45;99678.88;2039522;84;31923;-71
2021/01/07 03:15:44;;;;;;;20.55;13.28;;;;;;;2.11;77.37;99679.28;2076211;84;33156;-70
2021/01/07 03:18:46;;;;;;;20.00;12.80;;;;;;;2.10;77.28;99677.55;2114249;83;29324;-70
2021/01/07 03:21:48;;;;;;;26.07;13.10;;;;;;;2.07;77.35;99683.38;2124325;83;28261;-70
2021/01/07 03:24:51;;;;;;;20.45;13.08;;;;;;;2.04;77.39;99676.41;2110499;82;29701;-71
2021/01/07 03:27:53;;;;;;;20.85;13.53;;;;;;;2.01;77.36;99676.47;2133366;82;32188;-70
2021/01/07 03:30:55;;;;;;;22.15;14.05;;;;;;;2.00;77.50;99677.81;2121214;82;33208;-70
2021/01/07 03:33:57;;;;;;;22.45;14.90;;;;;;;2.01;77.57;99677.79;2155953;82;28209;-70
2021/01/07 03:37:00;;;;;;;20.95;12.68;;;;;;;2.01;77.57;99680.87;2103744;82;27693;-70
2021/01/07 03:40:04;;;;;;;21.17;12.70;;;;;;;2.00;77.48;99680.45;2090486;83;28822;-71
2021/01/07 03:43:06;;;;;;;18.00;12.58;;;;;;;1.99;77.43;99682.23;2116710;83;31008;-70
2021/01/07 03:46:09;;;;;;;17.32;13.28;;;;;;;2.01;77.50;99679.55;2141825;80;33151;-68
2021/01/07 03:49:11;;;;;;;22.55;13.03;;;;;;;2.03;77.66;99677.74;2130882;80;29889;-73
2021/01/07 03:52:14;;;;;;;18.67;12.85;;;;;;;2.06;77.57;99681.20;2129634;81;27546;-72
2021/01/07 03:55:18;;;;;;;20.30;13.65;;;;;;;2.06;77.53;99676.35;2028918;86;27798;-72
2021/01/07 03:58:20;;;;;;;20.08;12.75;;;;;;;2.09;77.73;99673.64;2028691;84;30933;-71
2021/01/07 04:01:22;;;;;;;21.07;13.62;;;;;;;2.12;77.75;99670.92;1975506;86;33843;-73
2021/01/07 04:04:26;;;;;;;17.98;12.90;;;;;;;2.16;77.74;99666.42;2030983;84;28843;-74
2021/01/07 04:07:29;;;;;;;17.52;10.58;;;;;;;2.15;77.65;99677.45;1990667;88;27938;-71
2021/01/07 04:10:31;;;;;;;16.05;11.03;;;;;;;2.17;77.62;99677.41;2029628;86;28851;-73
2021/01/07 04:13:33;;;;;;;16.15;11.03;;;;;;;2.16;77.48;99675.20;2117948;81;32257;-73
2021/01/07 04:16:36;;;;;;;15.28;11.75;;;;;;;2.17;77.53;99679.58;2134403;81;33157;-72
2021/01/07 04:19:42;;;;;;;19.57;12.30;;;;;;;2.18;77.44;99681.32;2153667;82;28755;-71
2021/01/07 04:22:46;;;;;;;17.77;12.18;;;;;;;2.20;77.50;99680.83;2124515;83;27690;-72
2021/01/07 04:25:59;;;;;;;17.77;12.77;;;;;;;2.26;77.55;99670.55;2232875;79;27860;-68
2021/01/07 04:29:02;;;;;;;19.52;12.58;;;;;;;2.23;77.55;99677.27;2170242;81;27757;-68
2021/01/07 04:32:05;;;;;;;17.60;12.30;;;;;;;2.23;77.47;99680.77;2109399;81;29589;-68
2021/01/07 04:35:08;;;;;;;18.70;11.70;;;;;;;2.23;77.42;99679.91;2163904;79;31158;-68
2021/01/07 04:38:12;;;;;;;18.48;11.80;;;;;;;2.20;77.40;99680.83;2133159;79;32918;-67
2021/01/07 04:41:17;;;;;;;15.65;10.80;;;;;;;2.18;77.42;99681.79;2157398;79;29379;-70
2021/01/07 04:44:34;;;;;;;14.93;10.10;;;;;;;2.23;77.39;99675.94;2188037;79;27664;-68
2021/01/07 04:47:37;;;;;;;13.45;9.63;;;;;;;2.17;77.34;99678.27;2132489;81;27922;-68
2021/01/07 04:50:39;;;;;;;14.78;9.15;;;;;;;2.18;77.21;99676.03;2134087;81;28425;-67
2021/01/07 04:53:43;;;;;;;13.68;10.40;;;;;;;2.15;77.19;99682.74;2068133;84;31167;-68
2021/01/07 04:56:46;;;;;;;13.53;9.78;;;;;;;2.17;77.33;99678.73;2075970;81;32929;-68
2021/01/07 04:59:48;;;;;;;14.68;10.10;;;;;;;2.16;77.33;99673.03;2095441;81;29963;-67
2021/01/07 05:02:51;;;;;;;14.70;10.65;;;;;;;2.14;77.16;99678.36;2107019;82;27662;-68
2021/01/07 05:05:54;;;;;;;14.25;10.18;;;;;;;2.09;77.23;99675.81;2144412;81;28829;-67
2021/01/07 05:09:03;;;;;;;16.85;10.48;;;;;;;2.05;77.13;99686.50;2195031;79;31259;-67
2021/01/07 05:12:06;;;;;;;17.23;10.93;;;;;;;1.99;77.13;99680.92;2165611;81;33204;-68
2021/01/07 05:15:10;;;;;;;19.45;12.28;;;;;;;1.90;77.02;99679.38;2115465;81;28693;-68
2021/01/07 05:18:12;;;;;;;14.40;9.70;;;;;;;1.85;77.21;99679.92;2092664;81;27751;-69
2021/01/07 05:21:15;;;;;;;15.60;10.08;;;;;;;1.82;77.29;99684.84;2148896;79;29794;-68
2021/01/07 05:24:17;;;;;;;14.05;10.20;;;;;;;1.82;77.37;99684.84;2159058;79;31165;-68
2021/01/07 05:27:21;;;;;;;15.00;10.00;;;;;;;1.81;77.34;99683.09;2159695;79;32908;-69
2021/01/07 05:30:29;;;;;;;;;;;;;;;1.83;77.50;99689.65;2225384;79;28988;-68
2021/01/07 05:33:31;;;;;;;17.20;10.68;;;;;;;1.88;77.61;99698.81;2154622;81;27836;-68
2021/01/07 05:36:34;;;;;;;16.90;11.43;;;;;;;1.84;77.36;99695.81;2125844;79;29779;-68
2021/01/07 05:39:37;;;;;;;18.27;12.15;;;;;;;1.76;77.22;99688.08;2126290;79;31892;-67
2021/01/07 05:42:43;;;;;;;18.27;12.53;;;;;;;1.69;77.30;99698.34;2109718;81;33121;-68
2021/01/07 05:45:45;;;;;;;18.30;12.50;;;;;;;1.68;77.58;99694.86;2127412;81;28626;-67
2021/01/07 05:48:54;;;;;;;18.07;11.25;;;;;;;1.66;77.55;99696.66;2099689;81;27647;-68
2021/01/07 05:51:56;;;;;;;18.35;11.63;;;;;;;1.64;77.52;99695.82;2117985;83;28403;-68
2021/01/07 05:55:01;;;;;;;19.67;12.90;;;;;;;1.63;77.67;99699.36;2094738;81;30958;-68
2021/01/07 05:58:03;;;;;;;14.50;9.00;;;;;;;1.61;77.65;99700.73;2147069;81;32905;-67
2021/01/07 06:01:06;;;;;;;19.25;12.25;;;;;;;1.62;77.60;99691.91;2077204;82;28876;-68
2021/01/07 06:04:09;;;;;;;18.25;12.28;;;;;;;1.63;77.60;99695.41;2107451;83;27702;-67
2021/01/07 06:07:12;;;;;;;21.20;13.22;;;;;;;1.65;77.71;99693.16;2090941;82;28643;-68
2021/01/07 06:10:16;;;;;;;21.45;12.98;;;;;;;1.65;77.62;99694.92;2073135;84;30953;-69
2021/01/07 06:13:19;;;;;;;28.42;14.30;;;;;;;1.65;77.70;99690.52;2093631;82;34014;-68
2021/01/07 06:16:24;;;;;;;30.90;15.58;;;;;;;1.64;77.60;99694.06;2038344;82;29560;-68
2021/01/07 06:19:42;;;;;;;25.05;14.33;;;;;;;1.60;77.57;99700.31;2061564;84;27768;-68
2021/01/07 06:22:50;;;;;;;24.47;14.33;;;;;;;1.56;77.48;99694.67;2053639;85;28855;-66
2021/01/07 06:26:25;;;;;;;21.53;13.77;;;;;;;1.56;77.53;99703.06;2250670;77;27723;-67
2021/01/07 06:29:27;;;;;;;23.32;14.43;;;;;;;1.47;77.65;99710.73;2121426;80;27761;-68
2021/01/07 06:32:33;;;;;;;20.82;13.13;;;;;;;1.44;77.73;99712.11;2160030;78;28757;-67
2021/01/07 06:35:42;;;;;;;21.42;13.13;;;;;;;1.41;77.77;99707.75;2159302;80;31156;-68
2021/01/07 06:38:55;;;;;;;21.62;13.18;;;;;;;1.40;77.79;99713.07;2139130;80;33187;-67
2021/01/07 06:41:58;;;;;;;19.75;12.68;;;;;;;1.43;77.84;99714.33;2148797;80;28128;-68
2021/01/07 06:45:03;;;;;;;19.52;12.75;;;;;;;1.44;77.81;99725.31;2161840;80;27774;-69
2021/01/07 06:48:08;;;;;;;23.92;13.68;;;;;;;1.41;77.87;99726.22;2148572;80;28368;-68
2021/01/07 06:51:12;;;;;;;19.00;13.38;;;;;;;1.42;77.95;99727.11;2169114;81;29995;-68
2021/01/07 06:54:15;;;;;;;20.27;12.85;;;;;;;1.44;78.07;99727.95;2174119;81;33118;-68
2021/01/07 06:57:17;;;;;;;21.55;13.38;;;;;;;1.45;78.02;99729.69;2184121;80;29632;-68
2021/01/07 07:00:23;;;;;;;19.37;12.43;;;;;;;1.44;77.80;99736.72;2157694;80;27683;-68
2021/01/07 07:03:26;;;;;;;20.20;12.53;;;;;;;1.40;77.85;99731.11;2159958;81;28925;-67
2021/01/07 07:06:28;;;;;;;20.90;13.15;;;;;;;1.38;77.93;99736.87;2176091;80;32161;-68
2021/01/07 07:09:40;;;;;;;19.65;11.33;;;;;;;1.38;77.97;99741.27;2177797;80;33953;-67
2021/01/07 07:12:48;;;;;;;17.45;10.63;;;;;;;1.41;78.06;99743.84;2146560;80;28455;-68
2021/01/07 07:15:50;;;;;;;19.73;11.40;;;;;;;1.42;77.99;99744.27;2154666;80;27628;-69
2021/01/07 07:18:55;;;;;;;21.85;12.55;;;;;;;1.45;78.03;99748.16;2125462;80;29367;-67
2021/01/07 07:22:04;;;;;;;23.67;14.20;;;;;;;1.52;78.08;99753.71;2170377;80;31131;-67
2021/01/07 07:25:08;;;;;;;24.20;15.08;;;;;;;1.51;77.87;99755.50;2144891;80;34580;-68
2021/01/07 07:28:12;;;;;;;24.47;15.75;;;;;;;1.48;77.83;99757.34;2155559;80;28863;-68
2021/01/07 07:31:16;;;;;;;22.42;13.35;;;;;;;1.48;77.89;99765.27;2153802;80;28146;-69
2021/01/07 07:34:28;;;;;;;23.12;13.98;;;;;;;1.45;77.78;99767.49;2174995;80;29527;-67
2021/01/07 07:37:31;;;;;;;21.62;13.03;;;;;;;1.44;77.95;99770.17;2188776;80;32122;-68
2021/01/07 07:40:44;;;;;;;22.10;12.85;;;;;;;1.45;77.93;99775.41;2146583;80;34070;-68
2021/01/07 07:43:47;;;;;;;23.25;12.78;;;;;;;1.44;77.90;99782.91;2206231;80;28945;-67
2021/01/07 07:46:52;;;;;;;20.77;13.68;;;;;;;1.45;77.89;99785.11;2144183;80;27665;-67
2021/01/07 07:49:57;;;;;;;20.37;12.60;;;;;;;1.47;78.01;99780.21;2154444;80;29830;-67
2021/01/07 07:53:10;;;;;;;23.65;13.22;;;;;;;1.50;77.95;99780.59;2185705;80;31196;-67
2021/01/07 07:56:22;;;;;;;22.05;14.28;;;;;;;1.55;78.04;99784.01;2189337;80;33120;-67
2021/01/07 07:59:25;;;;;;;23.38;14.25;;;;;;;1.62;78.16;99779.47;2166578;80;28054;-68
2021/01/07 08:02:28;;;;;;;25.72;14.95;;;;;;;1.70;78.21;99781.51;2201517;80;27640;-67
2021/01/07 08:05:32;;;;;;;24.30;14.15;;;;;;;1.78;78.10;99784.84;2180667;80;29677;-68
2021/01/07 08:08:35;;;;;;;25.40;15.10;;;;;;;1.85;78.05;99787.35;2150378;80;30974;-67
2021/01/07 08:11:45;;;;;;;22.10;13.95;;;;;;;1.92;78.11;99788.50;2125252;80;33172;-68
2021/01/07 08:14:51;;;;;;;24.57;15.25;;;;;;;1.95;78.01;99778.31;2161992;80;29793;-68
2021/01/07 08:18:17;;;;;;;21.95;14.85;;;;;;;2.04;77.91;99787.80;2175937;80;28022;-68
2021/01/07 08:21:19;;;;;;;26.70;15.60;;;;;;;2.05;77.68;99789.53;2145293;81;28614;-66
2021/01/07 08:24:24;;;;;;;24.32;14.87;;;;;;;2.09;77.90;99793.86;2140368;81;31139;-67
2021/01/07 08:27:30;;;;;;;22.67;14.70;;;;;;;2.18;77.90;99791.45;2106261;81;33830;-67
2021/01/07 08:30:46;;;;;;;21.42;14.83;;;;;;;2.23;77.68;99798.83;2136259;80;28381;-67
2021/01/07 08:33:50;;;;;;;21.57;14.25;;;;;;;2.25;77.60;99801.84;2145825;82;27634;-67
2021/01/07 08:36:53;;;;;;;27.27;15.83;;;;;;;2.28;77.62;99797.81;2168133;80;28814;-67
2021/01/07 08:39:55;;;;;;;24.15;15.30;;;;;;;2.33;77.84;99802.09;2166181;81;31155;-68
2021/01/07 08:43:12;;;;;;;24.50;16.10;;;;;;;2.46;77.90;99804.00;2300513;77;27639;-68
2021/01/07 08:46:25;;;;;;;23.22;15.48;;;;;;;2.48;77.81;99802.19;2225839;78;27749;-69
2021/01/07 08:49:31;;;;;;;24.82;16.55;;;;;;;2.52;77.64;99794.14;2174646;80;29527;-68
2021/01/07 08:52:54;;;;;;;29.65;16.55;;;;;;;2.54;77.51;99795.44;2199630;78;30946;-68
2021/01/07 08:55:56;;;;;;;21.65;14.18;;;;;;;2.55;77.51;99798.50;2197521;80;33103;-69
2021/01/07 08:59:23;;;;;;;23.00;14.68;;;;;;;2.58;77.51;99789.14;2203196;78;29395;-69
2021/01/07 09:02:26;;;;;;;23.22;14.83;;;;;;;2.66;77.41;99796.89;2235614;78;27711;-59
2021/01/07 09:05:29;;;;;;;22.25;14.95;;;;;;;2.71;77.33;99781.78;2219845;80;28901;-60
2021/01/07 09:08:32;;;;;;;24.50;15.75;;;;;;;2.79;77.47;99794.37;2157702;79;31153;-60
2021/01/07 09:11:35;;;;;;;24.35;16.10;;;;;;;2.88;77.42;99791.94;2207201;78;33144;-67
2021/01/07 09:14:49;;;;;;;21.93;15.72;;;;;;;2.96;77.40;99795.70;2186630;78;29407;-66
2021/01/07 09:17:56;;;;;;;25.10;16.40;;;;;;;3.04;77.30;99797.23;2207124;78;27859;-61
2021/01/07 09:20:58;;;;;;;26.23;16.45;;;;;;;3.13;77.36;99789.50;2182723;78;28625;-65
2021/01/07 09:24:01;;;;;;;23.02;15.63;;;;;;;3.25;77.33;99794.04;2183983;78;31218;-67
2021/01/07 09:27:18;;;;;;;24.35;14.50;;;;;;;3.38;77.42;99794.57;2211381;78;34065;-59
2021/01/07 09:30:21;;;;;;;23.67;14.98;;;;;;;3.50;77.32;99790.24;2224985;80;28053;-59
2021/01/07 09:33:24;;;;;;;29.32;19.62;;;;;;;3.63;77.09;99787.64;2190476;80;27692;-68
2021/01/07 09:36:28;;;;;;;22.35;15.55;;;;;;;3.74;76.83;99793.95;2172261;80;28606;-65
2021/01/07 09:39:31;;;;;;;26.82;16.70;;;;;;;3.85;76.39;99787.45;2132521;78;30966;-61
2021/01/07 09:42:34;;;;;;;25.27;15.78;;;;;;;3.87;76.02;99789.60;2174744;79;34065;-68
2021/01/07 09:45:39;;;;;;;21.40;14.50;;;;;;;3.88;75.92;99790.90;2176844;79;28616;-60
2021/01/07 09:48:41;;;;;;;25.50;14.87;;;;;;;3.90;75.57;99788.19;2193432;78;27693;-61
2021/01/07 09:51:44;;;;;;;23.05;15.48;;;;;;;3.90;75.30;99789.52;2133182;81;28901;-61
2021/01/07 09:54:46;;;;;;;26.25;15.03;;;;;;;3.92;75.76;99787.22;2135269;81;31163;-61
2021/01/07 09:57:51;;;;;;;23.75;15.53;;;;;;;3.98;75.65;99786.16;2108879;81;33827;-59
2021/01/07 10:00:55;;;;;;;25.30;15.68;;;;;;;4.02;75.54;99787.80;2096737;81;28632;-60
2021/01/07 10:03:58;;;;;;;24.92;16.50;;;;;;;4.06;75.61;99787.24;2159542;81;28167;-61
2021/01/07 10:07:02;;;;;;;25.65;17.05;;;;;;;4.10;75.59;99787.13;2111665;82;28599;-60
2021/01/07 10:10:06;;;;;;;32.08;22.07;;;;;;;4.15;75.72;99783.00;2121135;82;31215;-59
2021/01/07 10:13:09;;;;;;;20.70;13.10;;;;;;;4.16;75.61;99786.06;2121035;82;32991;-62
2021/01/07 10:16:14;;;;;;;20.05;13.15;;;;;;;4.20;75.21;99783.73;2075990;82;29835;-60
2021/01/07 10:19:18;;;;;;;20.95;12.93;;;;;;;4.22;75.24;99779.22;2088408;82;27697;-61
2021/01/07 10:22:23;;;;;;;26.45;16.00;;;;;;;4.26;75.24;99783.52;2145917;81;28898;-61
2021/01/07 10:25:26;;;;;;;26.65;16.75;;;;;;;4.28;75.04;99783.48;2192663;81;32173;-60
2021/01/07 10:28:29;;;;;;;35.55;21.77;;;;;;;4.29;75.12;99786.98;2157468;81;33147;-65
2021/01/07 10:31:32;;;;;;;32.38;20.35;;;;;;;4.33;75.29;99791.28;2162342;81;28849;-62
2021/01/07 10:34:41;;;;;;;29.63;16.93;;;;;;;4.37;75.13;99781.84;2183377;81;27624;-60
2021/01/07 10:37:43;;;;;;;27.48;17.73;;;;;;;4.41;75.26;99787.91;2141424;81;28639;-60
2021/01/07 10:40:45;;;;;;;24.85;16.00;;;;;;;4.42;75.07;99785.66;2179006;81;31148;-61
2021/01/07 10:43:51;;;;;;;37.58;26.48;;;;;;;4.41;74.99;99788.80;2112855;82;33347;-61
2021/01/07 10:46:59;;;;;;;48.75;32.78;;;;;;;4.39;74.92;99785.32;2154395;82;29830;-61
2021/01/07 10:50:04;;;;;;;36.33;20.40;;;;;;;4.33;74.60;99789.95;2117313;81;27729;-62
2021/01/07 10:53:48;;;;;;;33.53;21.12;;;;;;;4.23;74.35;99786.25;2158968;79;28829;-62
2021/01/07 10:57:30;;;;;;;56.75;34.27;;;;;;;4.14;74.17;99775.11;2224633;79;32189;-62
2021/01/07 11:01:09;;;;;;;33.25;20.88;;;;;;;4.08;74.12;99776.14;2155595;82;33940;-62
2021/01/07 11:04:35;;;;;;;30.02;20.77;;;;;;;4.05;74.42;99778.44;2126058;82;29301;-62
2021/01/07 11:07:46;;;;;;;45.33;26.77;;;;;;;4.05;74.60;99770.95;2101762;82;27689;-62
2021/01/07 11:10:54;;;;;;;35.08;20.10;;;;;;;4.07;74.68;99773.08;2110890;81;28619;-59
2021/01/07 11:14:05;;;;;;;38.70;23.00;;;;;;;4.09;74.70;99775.22;2130918;82;31907;-60
2021/01/07 11:17:15;;;;;;;32.28;18.77;;;;;;;4.06;74.37;99773.98;2142545;81;33918;-60
2021/01/07 11:20:19;;;;;;;40.12;22.80;;;;;;;3.98;74.00;99776.03;2169088;81;28616;-60
2021/01/07 11:23:22;;;;;;;41.68;25.20;;;;;;;3.91;74.20;99772.23;2138193;81;27728;-61
2021/01/07 11:26:25;;;;;;;36.30;19.20;;;;;;;3.91;74.41;99774.03;2112998;82;30225;-60
2021/01/07 11:29:27;;;;;;;45.92;26.30;;;;;;;3.87;74.34;99779.00;2151782;81;31090;-60
2021/01/07 11:32:31;;;;;;;51.20;27.37;;;;;;;3.85;74.52;99772.87;2170025;81;34031;-62
2021/01/07 11:35:34;;;;;;;33.30;19.57;;;;;;;3.87;74.65;99772.37;2102529;82;28608;-61
2021/01/07 11:38:50;;;;;;;38.75;19.15;;;;;;;3.91;74.52;99770.05;2117107;81;27640;-61
2021/01/07 11:42:16;;;;;;;37.80;22.27;;;;;;;3.92;74.64;99772.64;2177578;80;30326;-61
2021/01/07 11:45:21;;;;;;;32.90;19.23;;;;;;;3.95;74.56;99774.35;2160015;80;31156;-64
2021/01/07 11:48:25;;;;;;;34.15;18.95;;;;;;;3.98;74.33;99774.23;2190495;80;34136;-67
2021/01/07 11:51:29;;;;;;;27.95;17.95;;;;;;;3.90;74.34;99776.27;2164961;80;28637;-61
2021/01/07 11:54:37;;;;;;;27.20;17.37;;;;;;;3.84;74.32;99772.03;2161365;80;27772;-60
2021/01/07 11:57:41;;;;;;;28.10;17.80;;;;;;;3.78;74.14;99776.17;2190938;80;28847;-60
2021/01/07 12:00:44;;;;;;;28.92;17.87;;;;;;;3.72;74.26;99769.76;2164418;80;30947;-59
2021/01/07 12:03:47;;;;;;;27.93;18.10;;;;;;;3.67;74.43;99770.34;2152511;80;33139;-61
2021/01/07 12:06:57;;;;;;;26.05;16.70;;;;;;;3.62;74.37;99767.36;2127043;81;29798;-61
2021/01/07 12:10:04;;;;;;;31.40;18.73;;;;;;;3.63;74.55;99772.22;2208238;80;27640;-64
2021/01/07 12:13:32;;;;;;;24.63;15.08;;;;;;;3.63;74.45;99773.08;2190526;80;28832;-59
2021/01/07 12:16:52;;;;;;;47.20;30.15;;;;;;;3.65;74.32;99766.39;2174298;81;30809;-61
2021/01/07 12:19:59;;;;;;;39.23;25.60;;;;;;;3.73;74.67;99767.48;2210651;80;33119;-61
2021/01/07 12:23:04;;;;;;;28.35;16.67;;;;;;;3.79;74.81;99771.29;2190063;80;29467;-60
2021/01/07 12:26:09;;;;;;;26.42;16.70;;;;;;;3.82;74.48;99772.53;2191270;80;27689;-59
2021/01/07 12:29:23;;;;;;;27.40;17.05;;;;;;;3.85;74.65;99776.41;2183376;80;29723;-59
2021/01/07 12:32:34;;;;;;;29.00;19.02;;;;;;;3.88;74.60;99776.33;2150853;80;31345;-59
2021/01/07 12:35:37;;;;;;;35.90;21.50;;;;;;;3.88;74.56;99775.44;2127654;81;33237;-59
2021/01/07 12:38:57;;;;;;;32.93;20.30;;;;;;;3.89;74.48;99769.23;2152654;81;29406;-60
2021/01/07 12:42:03;;;;;;;41.18;22.80;;;;;;;3.89;74.32;99771.87;2146372;81;27733;-59
2021/01/07 12:45:09;;;;;;;29.87;18.67;;;;;;;3.84;74.40;99772.47;2126153;82;28688;-60
2021/01/07 12:48:11;;;;;;;35.50;20.55;;;;;;;3.79;74.19;99769.52;2063578;84;31193;-60
2021/01/07 12:51:14;;;;;;;30.32;18.17;;;;;;;3.76;74.49;99770.94;2087685;84;33934;-60
2021/01/07 12:54:17;;;;;;;37.13;21.55;;;;;;;3.75;74.40;99766.98;2042701;84;28481;-61
2021/01/07 12:57:23;;;;;;;37.63;23.75;;;;;;;3.75;74.51;99769.64;2063148;84;27812;-60
2021/01/07 13:00:34;;;;;;;34.38;21.73;;;;;;;3.75;74.37;99769.20;2064648;84;28628;-60
2021/01/07 13:04:00;;;;;;;32.30;22.23;;;;;;;3.80;74.21;99767.28;2247902;78;27799;-60
2021/01/07 13:07:04;;;;;;;35.48;21.15;;;;;;;3.77;74.36;99772.67;2169173;79;27695;-61
2021/01/07 13:10:09;;;;;;;;;;;;;;;3.78;74.41;99773.09;2171258;79;28605;-60
2021/01/07 13:13:13;;;;;;;29.10;17.62;;;;;;;3.81;74.29;99772.11;2170177;79;31935;-60
2021/01/07 13:16:17;;;;;;;28.23;17.25;;;;;;;3.82;74.27;99775.17;2228529;79;34408;-60
2021/01/07 13:19:20;;;;;;;29.42;17.35;;;;;;;3.84;74.38;99772.47;2170208;79;29456;-60
2021/01/07 13:22:22;;;;;;;29.12;17.85;;;;;;;3.86;74.42;99778.59;2170597;79;28107;-60
2021/01/07 13:25:29;;;;;;;41.65;24.77;;;;;;;3.90;74.38;99783.74;2169841;79;28528;-62
2021/01/07 13:28:32;;;;;;;41.70;23.30;;;;;;;3.94;74.27;99780.09;2145950;79;31056;-60
2021/01/07 13:31:35;;;;;;;25.65;15.85;;;;;;;3.91;73.60;99787.28;2169036;79;32950;-60
2021/01/07 13:34:41;;;;;;;32.73;17.20;;;;;;;3.86;73.77;99783.89;2168807;79;28688;-62
2021/01/07 13:37:47;;;;;;;25.40;15.58;;;;;;;3.90;74.23;99790.37;2195038;79;27729;-61
2021/01/07 13:40:50;;;;;;;22.73;13.50;;;;;;;3.98;74.03;99790.61;2156359;81;28838;-63
2021/01/07 13:43:55;;;;;;;23.40;14.45;;;;;;;4.00;73.69;99794.08;2181915;81;31176;-60
2021/01/07 13:46:59;;;;;;;21.60;14.63;;;;;;;4.01;73.86;99794.02;2189689;81;32922;-63
2021/01/07 13:50:08;;;;;;;25.17;14.55;;;;;;;4.06;73.93;99793.43;2156919;81;28630;-60
2021/01/07 13:53:11;;;;;;;41.92;22.70;;;;;;;4.07;73.77;99791.19;2174009;79;28005;-60
2021/01/07 13:56:14;;;;;;;29.87;16.62;;;;;;;4.06;73.75;99791.22;2228392;79;28957;-61
2021/01/07 13:59:16;;;;;;;31.30;19.60;;;;;;;4.05;73.85;99796.14;2117441;81;31163;-61
2021/01/07 14:02:19;;;;;;;38.20;20.55;;;;;;;4.03;73.56;99797.97;2146833;82;32923;-61
2021/01/07 14:05:22;;;;;;;29.72;17.90;;;;;;;4.00;73.51;99798.91;2152262;80;28944;-66
2021/01/07 14:08:32;;;;;;;28.70;17.62;;;;;;;3.95;73.51;99796.88;2124707;82;27997;-60
2021/01/07 14:11:35;;;;;;;25.15;16.48;;;;;;;3.91;73.50;99802.70;2120114;82;28585;-60
2021/01/07 14:14:59;;;;;;;23.95;14.53;;;;;;;3.86;73.46;99796.70;2142249;80;30944;-60
2021/01/07 14:18:04;;;;;;;20.35;13.25;;;;;;;3.78;73.14;99802.23;2127636;83;33200;-63
2021/01/07 14:21:10;;;;;;;26.85;15.18;;;;;;;3.64;72.80;99803.09;2044338;85;32106;-60
2021/01/07 14:24:12;;;;;;;23.92;15.15;;;;;;;3.55;73.05;99804.67;2064559;84;27809;-63
2021/01/07 14:27:39;;;;;;;26.48;15.88;;;;;;;3.48;73.27;99810.13;2067842;85;28620;-60
2021/01/07 14:30:42;;;;;;;23.98;14.50;;;;;;;3.47;73.46;99809.75;2090321;84;31164;-64
2021/01/07 14:33:45;;;;;;;24.35;15.63;;;;;;;3.44;73.10;99811.15;2091497;84;32915;-60